Time;durP1;ratioP1;P1;durP2;ratioP2;P2;SDS_P1;SDS_P2;PMS_P1;PMS_P2;Temp;Humidity;BMP_temperature;BMP_pressure;BME280_temperature;BME280_humidity;BME280_pressure;Samples;Min_cycle;Max_cycle;Signal;HPM_P1;HPM_P2
2021/08/17 00:00:17;;;;;;;;;;;;;;;14.90;85.79;99553.25;5054163;28;822;-60
2021/08/17 00:02:42;;;;;;;;;;;;;;;14.87;85.89;99551.38;5053958;28;1898;-60
2021/08/17 00:05:09;;;;;;;;;;;;;;;14.88;86.10;99543.78;5054100;28;852;-60
2021/08/17 00:07:36;;;;;;;;;;;;;;;14.95;86.15;99551.16;5053891;28;869;-60
2021/08/17 00:10:03;;;;;;;;;;;;;;;14.99;85.96;99549.06;5053784;28;819;-60
2021/08/17 00:12:30;;;;;;;;;;;;;;;15.03;86.02;99544.19;5053963;28;798;-60
2021/08/17 00:14:56;;;;;;;;;;;;;;;15.09;86.03;99548.00;5053917;28;915;-60
2021/08/17 00:17:22;;;;;;;;;;;;;;;15.10;85.87;99543.97;5032232;28;1298;-60
2021/08/17 00:19:49;;;;;;;;;;;;;;;15.06;85.82;99546.09;5033776;28;779;-60
2021/08/17 00:22:22;;;;;;;;;;;;;;;15.04;85.73;99548.53;5033599;28;1918;-60
2021/08/17 00:24:49;;;;;;;;;;;;;;;15.04;85.95;99540.16;5033621;28;854;-60
2021/08/17 00:27:17;;;;;;;;;;;;;;;15.03;86.15;99544.19;5033501;28;874;-60
2021/08/17 00:29:43;;;;;;;;;;;;;;;15.00;85.98;99536.69;5033551;28;881;-60
2021/08/17 00:32:10;;;;;;;;;;;;;;;14.97;86.03;99541.16;5033420;28;919;-60
2021/08/17 00:34:37;;;;;;;;;;;;;;;14.94;86.15;99541.28;5033432;28;795;-60
2021/08/17 00:37:04;;;;;;;;;;;;;;;14.95;86.17;99529.69;5033386;28;936;-60
2021/08/17 00:39:31;;;;;;;;;;;;;;;14.96;86.19;99538.81;5033286;28;783;-60
2021/08/17 00:41:58;;;;;;;;;;;;;;;14.93;85.85;99534.13;5033313;28;1949;-60
2021/08/17 00:44:25;;;;;;;;;;;;;;;14.86;85.91;99521.97;5033180;28;830;-60
2021/08/17 00:46:56;;;;;;;;;;;;;;;14.81;85.98;99528.06;5033244;28;905;-60
2021/08/17 00:49:23;;;;;;;;;;;;;;;14.77;86.03;99529.38;5033121;28;833;-60
2021/08/17 00:51:51;;;;;;;;;;;;;;;14.71;86.20;99529.13;5033082;28;839;-60
2021/08/17 00:54:18;;;;;;;;;;;;;;;14.71;86.29;99523.56;5033268;28;889;-60
2021/08/17 00:56:45;;;;;;;;;;;;;;;14.68;86.37;99525.22;5032951;28;864;-60
2021/08/17 00:59:11;;;;;;;;;;;;;;;14.66;86.39;99521.31;5032994;28;845;-60
2021/08/17 01:01:39;;;;;;;;;;;;;;;14.65;86.49;99517.75;5032818;28;1947;-60
2021/08/17 01:04:08;;;;;;;;;;;;;;;14.68;86.68;99518.91;5032902;28;843;-60
2021/08/17 01:06:35;;;;;;;;;;;;;;;14.72;86.73;99519.56;5032759;28;815;-60
2021/08/17 01:09:01;;;;;;;;;;;;;;;14.76;86.74;99517.47;5032801;28;862;-60
2021/08/17 01:11:28;;;;;;;;;;;;;;;14.76;86.51;99514.69;5032990;28;871;-60
2021/08/17 01:13:55;;;;;;;;;;;;;;;14.78;86.49;99517.03;5032716;28;1039;-60
2021/08/17 01:16:23;;;;;;;;;;;;;;;14.77;86.56;99510.69;5039793;28;1198;-60
2021/08/17 01:18:50;;;;;;;;;;;;;;;14.79;86.62;99519.38;5052475;28;862;-60
2021/08/17 01:21:16;;;;;;;;;;;;;;;14.82;86.73;99514.94;5052292;28;1969;-60
2021/08/17 01:23:45;;;;;;;;;;;;;;;14.81;86.58;99510.59;5052426;28;807;-60
2021/08/17 01:26:10;;;;;;;;;;;;;;;14.80;86.84;99515.38;5052170;28;831;-60
2021/08/17 01:28:37;;;;;;;;;;;;;;;14.81;86.76;99516.94;5052259;28;837;-60
2021/08/17 01:31:06;;;;;;;;;;;;;;;14.80;86.83;99509.81;5052214;28;921;-60
2021/08/17 01:33:34;;;;;;;;;;;;;;;14.80;86.86;99503.47;5052219;28;877;-60
2021/08/17 01:36:03;;;;;;;;;;;;;;;14.80;86.94;99504.25;5052087;28;830;-60
2021/08/17 01:38:29;;;;;;;;;;;;;;;14.79;86.81;99508.25;5052482;28;869;-60
2021/08/17 01:40:56;;;;;;;;;;;;;;;14.77;86.79;99505.13;5052083;28;905;-60
2021/08/17 01:43:23;;;;;;;;;;;;;;;14.73;86.81;99510.00;5051991;28;1965;-60
2021/08/17 01:45:57;;;;;;;;;;;;;;;14.71;86.93;99504.09;5034078;28;1200;-60
2021/08/17 01:48:28;;;;;;;;;;;;;;;14.71;86.98;99495.75;5052239;28;826;-60
2021/08/17 01:50:54;;;;;;;;;;;;;;;14.70;87.06;99499.75;5051923;28;823;-60
2021/08/17 01:53:27;;;;;;;;;;;;;;;14.70;87.08;99494.19;5051705;28;807;-60
2021/08/17 01:55:57;;;;;;;;;;;;;;;14.72;87.19;99490.97;5051575;28;885;-60
2021/08/17 01:58:24;;;;;;;;;;;;;;;14.73;87.12;99490.53;5051758;28;831;-60
2021/08/17 02:00:51;;;;;;;;;;;;;;;14.73;87.24;99486.97;5051688;28;814;-60
2021/08/17 02:03:17;;;;;;;;;;;;;;;14.70;87.14;99478.28;5051639;28;1909;-60
2021/08/17 02:05:45;;;;;;;;;;;;;;;14.68;87.09;99491.84;5051692;28;918;-60
2021/08/17 02:08:11;;;;;;;;;;;;;;;14.68;87.35;99477.94;5051591;28;878;-60
2021/08/17 02:10:38;;;;;;;;;;;;;;;14.70;87.42;99485.84;5051555;28;1017;-60
2021/08/17 02:13:05;;;;;;;;;;;;;;;14.70;87.51;99480.25;5051559;28;822;-60
2021/08/17 02:15:33;;;;;;;;;;;;;;;14.70;87.47;99483.03;5051659;28;1191;-61
2021/08/17 02:17:59;;;;;;;;;;;;;;;14.70;87.50;99478.28;5051589;28;854;-60
2021/08/17 02:20:26;;;;;;;;;;;;;;;14.68;86.98;99475.16;5051481;28;870;-60
2021/08/17 02:22:53;;;;;;;;;;;;;;;14.66;87.58;99480.38;5033507;28;1977;-60
2021/08/17 02:25:20;;;;;;;;;;;;;;;14.69;87.73;99475.94;5051378;28;878;-60
2021/08/17 02:27:47;;;;;;;;;;;;;;;14.67;87.46;99476.38;5051379;28;870;-60
2021/08/17 02:30:13;;;;;;;;;;;;;;;14.62;87.31;99471.34;5051318;28;794;-60
2021/08/17 02:32:39;;;;;;;;;;;;;;;14.58;87.23;99469.88;5051268;28;942;-60
2021/08/17 02:35:06;;;;;;;;;;;;;;;14.53;87.12;99467.59;5051367;28;874;-60
2021/08/17 02:37:33;;;;;;;;;;;;;;;14.41;87.20;99472.66;5051216;28;871;-60
2021/08/17 02:40:00;;;;;;;;;;;;;;;14.32;87.30;99466.16;5051551;28;811;-60
2021/08/17 02:42:28;;;;;;;;;;;;;;;14.28;87.59;99469.03;5051082;28;1897;-60
2021/08/17 02:44:54;;;;;;;;;;;;;;;14.23;87.50;99473.13;5051256;28;855;-60
2021/08/17 02:47:21;;;;;;;;;;;;;;;14.14;87.66;99472.16;5051197;28;799;-60
2021/08/17 02:49:47;;;;;;;;;;;;;;;14.15;87.68;99471.72;5051280;28;858;-60
2021/08/17 02:52:14;;;;;;;;;;;;;;;14.13;87.71;99476.94;5051173;28;921;-60
2021/08/17 02:54:41;;;;;;;;;;;;;;;14.16;87.90;99473.28;5051314;28;874;-60
2021/08/17 02:57:10;;;;;;;;;;;;;;;14.20;87.96;99473.19;5051023;28;886;-60
2021/08/17 02:59:37;;;;;;;;;;;;;;;14.23;87.95;99464.78;5051102;28;905;-60
2021/08/17 03:02:04;;;;;;;;;;;;;;;14.24;88.06;99469.13;5051025;28;1889;-59
2021/08/17 03:04:30;;;;;;;;;;;;;;;14.27;88.03;99471.03;5050943;28;1008;-60
2021/08/17 03:06:57;;;;;;;;;;;;;;;14.28;87.97;99469.03;5053322;28;850;-60
2021/08/17 03:09:24;;;;;;;;;;;;;;;14.26;87.84;99465.91;5054841;28;890;-60
2021/08/17 03:11:50;;;;;;;;;;;;;;;14.25;88.07;99470.69;5054932;28;807;-60
2021/08/17 03:14:17;;;;;;;;;;;;;;;14.22;88.25;99473.56;5054880;28;997;-60
2021/08/17 03:16:44;;;;;;;;;;;;;;;14.29;88.54;99479.72;5054702;28;1052;-60
2021/08/17 03:19:10;;;;;;;;;;;;;;;14.38;88.67;99475.53;5054911;28;890;-60
2021/08/17 03:21:37;;;;;;;;;;;;;;;14.48;88.91;99480.03;5054635;28;1981;-60
2021/08/17 03:24:04;;;;;;;;;;;;;;;14.57;88.57;99480.22;5054572;28;843;-60
2021/08/17 03:26:31;;;;;;;;;;;;;;;14.59;88.41;99480.56;5054647;28;870;-60
2021/08/17 03:28:57;;;;;;;;;;;;;;;14.59;88.46;99474.22;5054531;28;843;-60
2021/08/17 03:31:23;;;;;;;;;;;;;;;14.61;88.55;99477.34;5054686;28;870;-60
2021/08/17 03:33:51;;;;;;;;;;;;;;;14.66;88.35;99477.59;5054480;28;890;-60
2021/08/17 03:36:18;;;;;;;;;;;;;;;14.69;88.40;99475.94;5054446;28;823;-60
2021/08/17 03:38:45;;;;;;;;;;;;;;;14.70;88.37;99478.28;5054737;28;763;-60
2021/08/17 03:41:12;;;;;;;;;;;;;;;14.72;88.21;99485.41;5054328;28;885;-60
2021/08/17 03:43:38;;;;;;;;;;;;;;;14.71;88.19;99484.63;5054258;28;1886;-60
2021/08/17 03:46:05;;;;;;;;;;;;;;;14.69;88.18;99492.63;5054237;28;811;-60
2021/08/17 03:48:32;;;;;;;;;;;;;;;14.69;88.39;99489.84;5054257;28;810;-60
2021/08/17 03:50:59;;;;;;;;;;;;;;;14.67;88.38;99489.50;5054457;28;834;-60
2021/08/17 03:53:27;;;;;;;;;;;;;;;14.69;88.39;99493.41;5054112;28;818;-60
2021/08/17 03:55:54;;;;;;;;;;;;;;;14.73;88.33;99496.09;5054068;28;933;-60
2021/08/17 03:58:20;;;;;;;;;;;;;;;14.78;88.40;99486.44;5053994;28;861;-60
2021/08/17 04:00:47;;;;;;;;;;;;;;;14.90;88.67;99491.28;5053963;28;811;-60
2021/08/17 04:03:13;;;;;;;;;;;;;;;15.02;88.55;99489.75;5054138;28;1918;-60
2021/08/17 04:05:40;;;;;;;;;;;;;;;15.15;88.54;99487.78;5053924;28;814;-60
2021/08/17 04:08:08;;;;;;;;;;;;;;;15.27;88.52;99489.81;5053910;28;818;-60
2021/08/17 04:10:34;;;;;;;;;;;;;;;15.37;88.17;99479.59;5053982;28;936;-60
2021/08/17 04:13:00;;;;;;;;;;;;;;;15.48;87.83;99482.06;5053754;28;822;-60
2021/08/17 04:15:26;;;;;;;;;;;;;;;15.52;87.63;99477.16;5054036;28;1017;-60
2021/08/17 04:17:53;;;;;;;;;;;;;;;15.60;87.69;99477.72;5053034;28;1228;-60
2021/08/17 04:20:19;;;;;;;;;;;;;;;15.68;87.35;99479.84;5053657;28;866;-60
2021/08/17 04:22:46;;;;;;;;;;;;;;;15.73;87.09;99475.75;5053434;28;1973;-60
2021/08/17 04:25:13;;;;;;;;;;;;;;;15.76;87.18;99480.41;5035576;28;1586;-60
2021/08/17 04:27:39;;;;;;;;;;;;;;;15.79;87.18;99481.53;5053526;28;894;-60
2021/08/17 04:30:06;;;;;;;;;;;;;;;15.89;87.30;99478.41;5053646;28;949;-60
2021/08/17 04:32:33;;;;;;;;;;;;;;;16.00;87.04;99482.84;5053352;28;855;-60
2021/08/17 04:35:00;;;;;;;;;;;;;;;16.11;86.88;99486.88;5053343;28;818;-60
2021/08/17 04:37:27;;;;;;;;;;;;;;;16.25;86.67;99482.81;5053352;28;807;-60
2021/08/17 04:39:53;;;;;;;;;;;;;;;16.46;86.53;99478.53;5053521;28;869;-60
2021/08/17 04:42:20;;;;;;;;;;;;;;;16.69;86.27;99480.13;5053220;28;1886;-60
2021/08/17 04:44:46;;;;;;;;;;;;;;;16.93;85.67;99474.94;5053202;28;886;-60
2021/08/17 04:47:12;;;;;;;;;;;;;;;17.21;85.26;99477.13;5053047;28;799;-60
2021/08/17 04:49:39;;;;;;;;;;;;;;;17.48;85.23;99476.50;5035298;28;1293;-60
2021/08/17 04:52:06;;;;;;;;;;;;;;;17.72;84.23;99471.97;5052905;28;895;-60
2021/08/17 04:54:33;;;;;;;;;;;;;;;17.93;83.37;99483.56;5052960;28;807;-60
2021/08/17 04:57:00;;;;;;;;;;;;;;;18.12;82.88;99478.81;5053247;28;898;-60
2021/08/17 04:59:26;;;;;;;;;;;;;;;18.25;82.39;99485.03;5052931;28;842;-60
2021/08/17 05:01:53;;;;;;;;;;;;;;;18.44;82.17;99487.88;5052917;28;1878;-60
2021/08/17 05:04:20;;;;;;;;;;;;;;;18.65;81.21;99486.16;5052977;28;819;-60
2021/08/17 05:06:46;;;;;;;;;;;;;;;18.97;80.52;99485.59;5053017;28;874;-60
2021/08/17 05:17:33;;;;;;;;;;;;;;;20.59;74.65;99484.38;5012035;28;1581;-60
2021/08/17 05:19:59;;;;;;;;;;;;;;;20.77;73.60;99477.81;5012849;28;905;-60
2021/08/17 05:22:25;;;;;;;;;;;;;;;20.95;73.26;99478.91;5012795;28;1914;-60
2021/08/17 05:24:52;;;;;;;;;;;;;;;21.02;72.97;99484.16;5012826;28;846;-60
2021/08/17 05:27:20;;;;;;;;;;;;;;;21.16;73.00;99483.38;5012809;28;2527;-60
2021/08/17 05:29:50;;;;;;;;;;;;;;;21.50;72.03;99475.56;5012123;28;909;-60
2021/08/17 05:32:16;;;;;;;;;;;;;;;21.91;70.27;99481.34;5012565;28;899;-60
2021/08/17 05:34:43;;;;;;;;;;;;;;;22.30;69.46;99480.38;5012624;28;929;-60
2021/08/17 05:37:10;;;;;;;;;;;;;;;23.06;67.55;99487.94;4994830;28;1389;-60
2021/08/17 05:39:36;;;;;;;;;;;;;;;24.35;64.05;99480.50;5012685;28;842;-60
2021/08/17 05:42:03;;;;;;;;;;;;;;;25.75;60.07;99482.09;5012380;28;1914;-60
2021/08/17 05:44:29;;;;;;;;;;;;;;;26.54;57.53;99486.84;5012635;28;877;-60
2021/08/17 05:46:56;;;;;;;;;;;;;;;27.05;55.88;99488.16;5012639;28;827;-60
2021/08/17 05:49:22;;;;;;;;;;;;;;;27.36;55.22;99491.84;5012401;28;881;-60
2021/08/17 05:51:48;;;;;;;;;;;;;;;27.63;53.89;99495.78;5012487;28;846;-60
2021/08/17 05:54:14;;;;;;;;;;;;;;;28.25;52.44;99495.22;5012432;28;803;-60
2021/08/17 05:56:41;;;;;;;;;;;;;;;29.05;50.04;99487.22;5012511;28;799;-60
2021/08/17 05:59:08;;;;;;;;;;;;;;;29.62;48.42;99489.25;5012180;28;811;-60
2021/08/17 06:01:35;;;;;;;;;;;;;;;30.29;46.99;99493.75;5012061;28;1901;-61
2021/08/17 06:04:02;;;;;;;;;;;;;;;30.79;45.15;99490.41;5012234;28;826;-61
2021/08/17 06:06:29;;;;;;;;;;;;;;;31.40;44.47;99491.13;5012013;28;863;-61
2021/08/17 06:08:55;;;;;;;;;;;;;;;31.94;42.33;99483.81;5012009;28;873;-60
2021/08/17 06:11:22;;;;;;;;;;;;;;;32.33;42.30;99489.81;5012064;28;857;-61
2021/08/17 06:13:51;;;;;;;;;;;;;;;32.79;40.78;99490.03;5011972;28;977;-61
2021/08/17 06:16:18;;;;;;;;;;;;;;;33.05;40.57;99489.00;5022611;28;1381;-61
2021/08/17 06:18:44;;;;;;;;;;;;;;;33.20;39.66;99485.41;5031561;28;890;-61
2021/08/17 06:21:11;;;;;;;;;;;;;;;33.48;39.14;99475.94;5031685;28;849;-61
2021/08/17 06:23:36;;;;;;;;;;;;;;;33.30;39.15;99485.66;5031477;28;1906;-61
2021/08/17 06:26:03;;;;;;;;;;;;;;;33.35;38.78;99485.47;5031612;28;850;-61
2021/08/17 06:28:30;;;;;;;;;;;;;;;33.12;38.92;99491.16;5031540;28;846;-61
2021/08/17 06:30:57;;;;;;;;;;;;;;;32.84;38.75;99488.34;5031555;28;859;-61
2021/08/17 06:33:24;;;;;;;;;;;;;;;32.71;38.59;99487.19;5031525;28;858;-61
2021/08/17 06:35:50;;;;;;;;;;;;;;;32.62;38.92;99478.34;5031557;28;798;-61
2021/08/17 06:38:17;;;;;;;;;;;;;;;32.27;39.51;99483.47;5031652;28;869;-61
2021/08/17 06:40:44;;;;;;;;;;;;;;;32.39;39.20;99486.78;5033384;28;893;-61
2021/08/17 06:43:10;;;;;;;;;;;;;;;32.96;38.46;99480.94;5035695;28;1953;-61
2021/08/17 06:45:37;;;;;;;;;;;;;;;33.58;37.68;99478.22;5035737;28;838;-62
2021/08/17 06:48:05;;;;;;;;;;;;;;;33.85;36.41;99470.81;5035735;28;858;-62
2021/08/17 06:50:32;;;;;;;;;;;;;;;33.45;36.66;99479.94;5035707;28;831;-62
2021/08/17 06:52:59;;;;;;;;;;;;;;;33.32;36.99;99485.84;5035600;28;790;-62
2021/08/17 06:55:26;;;;;;;;;;;;;;;33.62;36.55;99481.50;5035608;28;905;-61
2021/08/17 06:57:52;;;;;;;;;;;;;;;33.27;36.98;99486.78;5035564;28;858;-62
2021/08/17 07:00:19;;;;;;;;;;;;;;;33.48;36.29;99480.88;5035474;28;898;-62
2021/08/17 07:02:45;;;;;;;;;;;;;;;33.81;35.79;99484.00;5035377;28;1886;-62
2021/08/17 07:05:11;;;;;;;;;;;;;;;34.06;35.57;99484.94;5035584;28;830;-62
2021/08/17 07:07:38;;;;;;;;;;;;;;;34.25;34.82;99472.31;5035091;28;921;-62
2021/08/17 07:10:05;;;;;;;;;;;;;;;34.46;34.54;99475.69;5035038;28;886;-62
2021/08/17 07:12:31;;;;;;;;;;;;;;;34.66;34.25;99485.38;5035023;28;806;-62
2021/08/17 07:14:57;;;;;;;;;;;;;;;34.88;33.85;99485.88;5035053;28;1030;-62
2021/08/17 07:17:24;;;;;;;;;;;;;;;35.09;33.07;99480.59;5015121;28;846;-62
2021/08/17 07:19:51;;;;;;;;;;;;;;;35.15;32.82;99472.53;5015204;28;897;-62
2021/08/17 07:22:17;;;;;;;;;;;;;;;34.84;33.37;99471.91;5015064;28;1910;-62
2021/08/17 07:24:44;;;;;;;;;;;;;;;34.93;33.31;99470.53;5015019;28;806;-62
2021/08/17 07:27:11;;;;;;;;;;;;;;;34.77;33.54;99472.72;5014941;28;893;-62
2021/08/17 07:29:38;;;;;;;;;;;;;;;34.68;33.62;99470.47;5014912;28;866;-62
2021/08/17 07:32:05;;;;;;;;;;;;;;;34.87;33.08;99467.13;5014865;28;849;-62
2021/08/17 07:34:31;;;;;;;;;;;;;;;34.84;33.79;99471.16;5014827;28;853;-62
2021/08/17 07:36:58;;;;;;;;;;;;;;;35.38;31.67;99477.38;5014766;28;873;-61
2021/08/17 07:39:24;;;;;;;;;;;;;;;34.90;32.77;99475.31;5014716;28;869;-62
2021/08/17 07:41:52;;;;;;;;;;;;;;;35.05;32.66;99467.97;5014673;28;1886;-63
2021/08/17 07:44:19;;;;;;;;;;;;;;;34.82;32.64;99468.09;5014547;28;862;-63
2021/08/17 07:46:45;;;;;;;;;;;;;;;34.87;32.96;99456.41;5014623;28;803;-62
2021/08/17 07:49:11;;;;;;;;;;;;;;;35.28;31.88;99462.88;5014535;28;815;-63
2021/08/17 07:51:38;;;;;;;;;;;;;;;35.47;31.81;99459.50;5013695;28;799;-62
2021/08/17 07:54:05;;;;;;;;;;;;;;;35.62;31.13;99458.59;5014272;28;926;-62
2021/08/17 07:56:31;;;;;;;;;;;;;;;35.45;29.84;99456.44;5014442;28;837;-62
2021/08/17 07:58:58;;;;;;;;;;;;;;;35.05;29.27;99457.25;5014382;28;869;-62
2021/08/17 08:01:25;;;;;;;;;;;;;;;35.09;29.39;99454.75;5014356;28;870;-62
2021/08/17 08:03:52;;;;;;;;;;;;;;;35.21;28.72;99449.34;5014109;28;1894;-62
2021/08/17 08:06:19;;;;;;;;;;;;;;;35.00;28.92;99454.63;5014212;28;819;-63
2021/08/17 08:08:46;;;;;;;;;;;;;;;35.00;28.99;99449.63;5014218;28;807;-62
2021/08/17 08:11:12;;;;;;;;;;;;;;;35.29;28.83;99449.28;4996499;28;1362;-62
2021/08/17 08:13:39;;;;;;;;;;;;;;;35.46;27.52;99449.31;5014101;28;870;-63
2021/08/17 08:16:06;;;;;;;;;;;;;;;35.36;27.06;99451.34;5014028;28;1333;-62
2021/08/17 08:18:32;;;;;;;;;;;;;;;35.32;26.39;99451.75;5014191;28;835;-63
2021/08/17 08:20:58;;;;;;;;;;;;;;;35.33;24.93;99441.75;5014040;28;819;-63
2021/08/17 08:23:25;;;;;;;;;;;;;;;35.17;25.44;99441.13;5013773;28;1977;-62
2021/08/17 08:25:52;;;;;;;;;;;;;;;35.20;26.23;99450.69;5013909;28;870;-62
2021/08/17 08:28:18;;;;;;;;;;;;;;;35.11;24.33;99445.53;5013950;28;870;-62
2021/08/17 08:30:45;;;;;;;;;;;;;;;35.10;25.15;99436.19;5013904;28;846;-63
2021/08/17 08:33:12;;;;;;;;;;;;;;;35.36;23.49;99434.09;5013712;28;952;-62
2021/08/17 08:35:38;;;;;;;;;;;;;;;35.03;22.55;99436.22;4996065;28;1522;-62
2021/08/17 08:38:05;;;;;;;;;;;;;;;35.07;22.61;99434.47;5013668;28;874;-62
2021/08/17 08:40:32;;;;;;;;;;;;;;;34.75;22.83;99427.38;5013569;28;874;-62
2021/08/17 08:42:59;;;;;;;;;;;;;;;34.64;22.54;99424.19;5013540;28;1957;-62
2021/08/17 08:45:26;;;;;;;;;;;;;;;34.75;22.50;99420.88;5013512;28;795;-62
2021/08/17 08:47:53;;;;;;;;;;;;;;;34.63;23.19;99429.19;5013533;28;827;-62
2021/08/17 08:50:20;;;;;;;;;;;;;;;34.62;22.49;99430.47;5013374;28;807;-62
2021/08/17 08:52:46;;;;;;;;;;;;;;;34.73;23.97;99435.78;5013373;28;962;-63
2021/08/17 08:55:13;;;;;;;;;;;;;;;34.63;23.27;99425.50;5013512;28;799;-63
2021/08/17 08:57:39;;;;;;;;;;;;;;;34.72;24.44;99424.91;5013431;28;807;-63
2021/08/17 09:00:09;;;;;;;;;;;;;;;34.67;24.35;99423.78;4995633;28;780;-62
2021/08/17 09:02:36;;;;;;;;;;;;;;;34.75;24.27;99418.75;5013067;28;1902;-62
2021/08/17 09:05:02;;;;;;;;;;;;;;;34.90;23.68;99422.91;5013084;28;857;-62
2021/08/17 09:07:35;;;;;;;;;;;;;;;34.90;24.62;99425.75;5012942;28;945;-62
2021/08/17 09:10:05;;;;;;;;;;;;;;;34.94;24.38;99426.88;5013114;28;830;-63
2021/08/17 09:12:37;;;;;;;;;;;;;;;34.89;24.83;99430.75;5012866;28;811;-60
2021/08/17 09:15:07;;;;;;;;;;;;;;;34.59;24.01;99420.16;5013508;28;1338;-63
2021/08/17 09:17:34;;;;;;;;;;;;;;;34.41;24.35;99430.75;5032683;28;904;-62
2021/08/17 09:20:01;;;;;;;;;;;;;;;34.22;23.51;99419.72;5032756;28;905;-63
2021/08/17 09:22:32;;;;;;;;;;;;;;;34.00;24.86;99420.53;5032627;28;1989;-63
2021/08/17 09:24:59;;;;;;;;;;;;;;;34.09;24.96;99419.94;5032429;28;969;-62
2021/08/17 09:27:27;;;;;;;;;;;;;;;34.09;25.21;99417.81;5032524;28;1017;-63
2021/08/17 09:30:01;;;;;;;;;;;;;;;34.04;25.43;99413.06;5032512;28;814;-60
2021/08/17 09:32:27;;;;;;;;;;;;;;;33.91;25.51;99416.91;5032366;28;850;-62
2021/08/17 09:34:58;;;;;;;;;;;;;;;33.44;26.67;99415.41;5032324;28;885;-62
2021/08/17 09:37:28;;;;;;;;;;;;;;;33.38;26.59;99411.97;5032298;28;834;-62
2021/08/17 09:39:55;;;;;;;;;;;;;;;33.17;26.51;99423.59;5032416;28;929;-62
2021/08/17 09:42:33;;;;;;;;;;;;;;;32.88;26.43;99418.00;5032320;28;1893;-62
2021/08/17 09:45:02;;;;;;;;;;;;;;;32.88;27.34;99420.06;5032158;28;845;-63
2021/08/17 09:47:29;;;;;;;;;;;;;;;33.06;26.93;99409.63;5032190;28;869;-63
2021/08/17 09:50:14;;;;;;;;;;;;;;;33.05;26.91;99406.00;5032276;28;947;-63
2021/08/17 09:52:40;;;;;;;;;;;;;;;33.10;25.99;99413.66;5032056;28;961;-64
2021/08/17 09:55:12;;;;;;;;;;;;;;;33.10;25.86;99402.22;5031940;28;855;-62
2021/08/17 09:57:38;;;;;;;;;;;;;;;33.09;25.51;99409.25;5031937;28;842;-62
2021/08/17 10:00:06;;;;;;;;;;;;;;;33.23;25.48;99400.50;5031953;28;870;-62
2021/08/17 10:02:33;;;;;;;;;;;;;;;33.41;25.41;99392.88;5031709;28;1955;-62
2021/08/17 10:05:00;;;;;;;;;;;;;;;33.44;25.16;99401.09;5031873;28;866;-63
2021/08/17 10:07:27;;;;;;;;;;;;;;;33.59;25.88;99388.84;5031850;28;909;-61
2021/08/17 10:09:54;;;;;;;;;;;;;;;33.58;26.12;99398.00;5031715;28;814;-62
2021/08/17 10:12:20;;;;;;;;;;;;;;;33.46;27.09;99381.22;5032024;28;795;-62
2021/08/17 10:14:48;;;;;;;;;;;;;;;33.31;27.77;99384.09;5031431;28;889;-62
2021/08/17 10:17:15;;;;;;;;;;;;;;;33.48;27.68;99380.63;5031498;28;1312;-63
2021/08/17 10:19:43;;;;;;;;;;;;;;;33.68;27.54;99378.94;5031812;28;902;-62
2021/08/17 10:22:10;;;;;;;;;;;;;;;33.52;27.32;99381.81;5031702;28;1914;-63
2021/08/17 10:24:39;;;;;;;;;;;;;;;33.67;27.83;99371.66;5031586;28;878;-63
2021/08/17 10:27:17;;;;;;;;;;;;;;;33.69;28.04;99380.44;5031570;28;857;-62
2021/08/17 10:29:55;;;;;;;;;;;;;;;33.55;26.90;99372.03;5031506;28;953;-62
2021/08/17 10:32:34;;;;;;;;;;;;;;;33.42;27.64;99371.50;5031530;28;787;-62
2021/08/17 10:35:00;;;;;;;;;;;;;;;33.47;27.66;99367.66;5031443;28;865;-62
2021/08/17 10:37:27;;;;;;;;;;;;;;;33.52;27.86;99366.69;5031516;28;795;-62
2021/08/17 10:39:54;;;;;;;;;;;;;;;33.65;26.60;99371.47;5031247;28;803;-63
2021/08/17 10:42:28;;;;;;;;;;;;;;;33.52;27.71;99366.69;5031447;28;1894;-62
2021/08/17 10:45:15;;;;;;;;;;;;;;;33.70;27.03;99367.66;5031646;28;803;-62
2021/08/17 10:47:41;;;;;;;;;;;;;;;33.89;26.52;99364.38;5031340;28;1743;-62
2021/08/17 10:50:08;;;;;;;;;;;;;;;34.23;25.79;99358.19;5031250;28;871;-63
2021/08/17 10:52:36;;;;;;;;;;;;;;;34.40;24.51;99359.59;5031164;28;965;-64
2021/08/17 10:55:23;;;;;;;;;;;;;;;34.22;24.92;99367.34;5031344;28;874;-62
2021/08/17 10:58:00;;;;;;;;;;;;;;;34.20;26.02;99350.72;5031243;28;846;-64
2021/08/17 11:00:45;;;;;;;;;;;;;;;34.28;26.74;99356.44;5031649;28;869;-63
2021/08/17 11:03:13;;;;;;;;;;;;;;;34.52;26.12;99358.59;5031628;28;1929;-62
2021/08/17 11:05:52;;;;;;;;;;;;;;;34.63;25.70;99356.63;5031472;28;830;-62
2021/08/17 11:08:37;;;;;;;;;;;;;;;34.67;25.25;99354.16;5031200;28;826;-63
2021/08/17 11:11:18;;;;;;;;;;;;;;;34.80;25.83;99353.09;5030980;28;915;-63
2021/08/17 11:14:02;;;;;;;;;;;;;;;34.62;26.02;99340.78;5031298;28;997;-64
2021/08/17 11:16:30;;;;;;;;;;;;;;;34.22;25.67;99344.41;5030936;28;1304;-63
2021/08/17 11:18:58;;;;;;;;;;;;;;;34.07;25.38;99340.22;5031346;28;885;-62
2021/08/17 11:21:36;;;;;;;;;;;;;;;34.13;25.22;99329.34;5031329;28;850;-60
2021/08/17 11:24:08;;;;;;;;;;;;;;;34.16;25.73;99331.06;5030996;28;1965;-62
2021/08/17 11:26:35;;;;;;;;;;;;;;;34.40;25.05;99328.84;5031071;28;877;-62
2021/08/17 11:29:03;;;;;;;;;;;;;;;34.33;26.51;99332.50;5034732;28;894;-62
2021/08/17 11:31:29;;;;;;;;;;;;;;;34.48;26.24;99325.91;5016838;28;1487;-63
2021/08/17 11:34:15;;;;;;;;;;;;;;;34.47;26.51;99322.28;5034656;28;849;-63
2021/08/17 11:36:48;;;;;;;;;;;;;;;34.11;26.46;99326.25;5034582;28;877;-62
2021/08/17 11:39:18;;;;;;;;;;;;;;;34.26;26.61;99319.72;5034623;28;839;-63
2021/08/17 11:41:44;;;;;;;;;;;;;;;34.45;26.73;99313.50;5034483;28;1886;-62
2021/08/17 11:44:15;;;;;;;;;;;;;;;34.53;27.03;99310.59;5034696;28;854;-62
2021/08/17 11:46:41;;;;;;;;;;;;;;;34.64;27.06;99310.16;5034413;28;874;-62
2021/08/17 11:49:21;;;;;;;;;;;;;;;34.92;26.86;99305.38;5034318;28;823;-62
2021/08/17 11:51:56;;;;;;;;;;;;;;;34.98;26.60;99298.03;5034273;28;898;-62
2021/08/17 11:54:22;;;;;;;;;;;;;;;35.01;26.47;99307.59;5034571;28;819;-62
2021/08/17 11:56:55;;;;;;;;;;;;;;;35.18;26.19;99309.78;5034210;28;881;-64
2021/08/17 11:59:21;;;;;;;;;;;;;;;35.25;26.03;99308.97;5034232;28;814;-62
2021/08/17 12:01:58;;;;;;;;;;;;;;;35.31;27.01;99300.09;5016253;28;1918;-63
2021/08/17 12:04:24;;;;;;;;;;;;;;;35.47;26.36;99306.47;5034058;28;869;-63
2021/08/17 12:07:09;;;;;;;;;;;;;;;35.39;26.35;99297.91;5034026;28;819;-62
2021/08/17 12:09:39;;;;;;;;;;;;;;;35.36;25.90;99301.97;5033937;28;819;-62
2021/08/17 12:12:07;;;;;;;;;;;;;;;35.39;25.41;99292.16;5033925;28;1016;-63
2021/08/17 12:14:34;;;;;;;;;;;;;;;35.40;24.89;99285.06;5033987;28;989;-63
2021/08/17 12:17:02;;;;;;;;;;;;;;;35.57;25.27;99284.28;5033579;28;1234;-63
2021/08/17 12:19:34;;;;;;;;;;;;;;;35.76;25.60;99281.63;5033838;28;826;-63
2021/08/17 12:22:02;;;;;;;;;;;;;;;35.81;26.04;99288.47;5033612;28;1910;-63
2021/08/17 12:24:32;;;;;;;;;;;;;;;35.91;24.66;99282.78;5033710;28;799;-63
2021/08/17 12:27:02;;;;;;;;;;;;;;;35.85;24.54;99273.66;5016043;28;807;-63
2021/08/17 12:29:40;;;;;;;;;;;;;;;35.59;25.81;99275.84;5033548;28;852;-63
2021/08/17 12:32:17;;;;;;;;;;;;;;;35.54;25.92;99269.00;5034099;28;807;-63
2021/08/17 12:34:45;;;;;;;;;;;;;;;35.48;26.36;99273.50;5033529;28;885;-63
2021/08/17 12:37:28;;;;;;;;;;;;;;;35.45;26.83;99269.69;5033155;28;859;-63
2021/08/17 12:39:56;;;;;;;;;;;;;;;35.72;27.12;99266.16;5033156;28;818;-61
2021/08/17 12:42:23;;;;;;;;;;;;;;;35.92;26.74;99261.31;5033290;28;1951;-61
2021/08/17 12:44:50;;;;;;;;;;;;;;;36.02;26.52;99250.66;5033387;28;782;-61
2021/08/17 12:47:23;;;;;;;;;;;;;;;35.87;25.56;99268.09;5033302;28;854;-60
2021/08/17 12:50:00;;;;;;;;;;;;;;;35.60;26.30;99262.25;5033274;28;989;-61
2021/08/17 12:52:28;;;;;;;;;;;;;;;35.72;26.14;99254.66;5015675;28;818;-61
2021/08/17 12:54:59;;;;;;;;;;;;;;;35.83;25.26;99248.41;5033001;28;926;-60
2021/08/17 12:57:27;;;;;;;;;;;;;;;35.72;25.62;99248.91;5033108;28;1049;-61
2021/08/17 12:59:53;;;;;;;;;;;;;;;35.67;25.81;99244.94;5032993;28;751;-61
2021/08/17 13:02:20;;;;;;;;;;;;;;;35.73;25.53;99244.69;5032995;28;1949;-60
2021/08/17 13:04:47;;;;;;;;;;;;;;;35.53;25.45;99241.63;5033094;28;858;-60
2021/08/17 13:07:14;;;;;;;;;;;;;;;35.36;26.21;99244.50;5032843;28;869;-60
2021/08/17 13:09:41;;;;;;;;;;;;;;;35.09;26.48;99233.63;5032774;28;990;-61
2021/08/17 13:12:08;;;;;;;;;;;;;;;35.01;26.84;99247.31;5032862;28;889;-62
2021/08/17 13:14:35;;;;;;;;;;;;;;;35.00;27.08;99242.91;5032852;28;987;-62
2021/08/17 13:17:02;;;;;;;;;;;;;;;34.92;26.90;99239.34;5032498;28;1270;-63